createdAt,value
2019-03-24T00:00:59.210Z,99305.03
2019-03-24T00:03:28.441Z,99305.59
2019-03-24T00:05:57.333Z,99306.80
2019-03-24T00:08:26.141Z,99312.30
2019-03-24T00:10:55.252Z,99314.64
2019-03-24T00:13:25.014Z,99307.25
2019-03-24T00:15:54.145Z,99309.06
2019-03-24T00:18:22.975Z,99306.26
2019-03-24T00:20:52.060Z,99308.83
2019-03-24T00:23:21.200Z,99303.84
2019-03-24T00:25:50.016Z,99302.27
2019-03-24T00:28:18.819Z,99300.59
2019-03-24T00:30:47.907Z,99294.03
2019-03-24T00:33:17.064Z,99299.77
2019-03-24T00:35:45.864Z,99296.52
2019-03-24T00:38:14.756Z,99293.65
2019-03-24T00:40:43.534Z,99295.77
2019-03-24T00:43:12.633Z,99288.12
2019-03-24T00:45:42.856Z,99290.46
2019-03-24T00:48:11.850Z,99290.22
2019-03-24T00:50:41.046Z,99292.34
2019-03-24T00:53:09.867Z,99288.20
2019-03-24T00:55:38.687Z,99286.52
2019-03-24T00:58:07.447Z,99281.92
2019-03-24T01:00:44.356Z,99280.70
2019-03-24T01:03:13.187Z,99280.11
2019-03-24T01:05:42.012Z,99276.50
2019-03-24T01:08:10.849Z,99274.52
2019-03-24T01:10:39.645Z,99265.66
2019-03-24T01:13:08.433Z,99269.80
2019-03-24T01:15:47.279Z,99264.77
2019-03-24T01:18:08.122Z,99265.72
2019-03-24T01:20:37.345Z,99261.13
2019-03-24T01:23:06.331Z,99259.65
2019-03-24T01:25:35.258Z,99253.53
2019-03-24T01:28:04.265Z,99252.79
2019-03-24T01:30:33.315Z,99247.60
2019-03-24T01:33:02.682Z,99250.28
2019-03-24T01:35:31.540Z,99246.37
2019-03-24T01:38:00.327Z,99241.28
2019-03-24T01:40:29.148Z,99246.77
2019-03-24T01:42:58.020Z,99245.63
2019-03-24T01:45:26.998Z,99244.59
2019-03-24T01:47:55.861Z,99244.39
2019-03-24T01:50:24.754Z,99242.92
2019-03-24T01:52:53.550Z,99246.59
2019-03-24T01:55:22.692Z,99240.05
2019-03-24T01:57:52.649Z,99236.34
2019-03-24T02:00:21.474Z,99238.66
2019-03-24T02:02:50.733Z,99238.33
2019-03-24T02:05:19.600Z,99232.98
2019-03-24T02:07:48.487Z,99232.78
2019-03-24T02:10:17.451Z,99230.86
2019-03-24T02:12:46.346Z,99225.52
2019-03-24T02:15:15.134Z,99230.19
2019-03-24T02:17:43.973Z,99227.08
2019-03-24T02:20:14.709Z,99222.34
2019-03-24T02:22:43.579Z,99222.03
2019-03-24T02:25:12.699Z,99217.55
2019-03-24T02:27:41.935Z,99217.27
2019-03-24T02:30:12.895Z,99214.96
2019-03-24T02:32:41.968Z,99212.80
2019-03-24T02:35:11.706Z,99215.73
2019-03-24T02:37:40.803Z,99209.59
2019-03-24T02:40:19.935Z,99208.39
2019-03-24T02:42:47.953Z,99221.53
2019-03-24T02:45:17.158Z,99224.37
2019-03-24T02:47:46.112Z,99219.69
2019-03-24T02:50:15.319Z,99221.45
2019-03-24T02:52:44.728Z,99225.95
2019-03-24T02:55:13.605Z,99225.70
2019-03-24T02:57:42.744Z,99229.63
2019-03-24T03:00:12.109Z,99226.86
2019-03-24T03:02:40.974Z,99223.16
2019-03-24T03:05:10.720Z,99222.63
2019-03-24T03:07:39.848Z,99209.34
2019-03-24T03:10:09.166Z,99216.45
2019-03-24T03:12:37.987Z,99219.98
2019-03-24T03:15:07.712Z,99217.74
2019-03-24T03:17:36.485Z,99218.05
2019-03-24T03:20:06.217Z,99215.31
2019-03-24T03:22:35.471Z,99223.69
2019-03-24T03:25:05.109Z,99221.97
2019-03-24T03:27:34.025Z,99220.92
2019-03-24T03:30:03.119Z,99220.05
2019-03-24T03:32:32.075Z,99222.86
2019-03-24T03:35:01.049Z,99222.80
2019-03-24T03:37:29.881Z,99220.23
2019-03-24T03:39:58.780Z,99224.41
2019-03-24T03:42:27.942Z,99227.73
2019-03-24T03:44:56.905Z,99232.30
2019-03-24T03:47:25.718Z,99224.36
2019-03-24T03:49:54.890Z,99232.70
2019-03-24T03:52:23.677Z,99228.55
2019-03-24T03:54:52.458Z,99225.89
2019-03-24T03:57:21.254Z,99224.59
2019-03-24T03:59:50.180Z,99224.88
2019-03-24T04:02:20.614Z,99225.05
2019-03-24T04:04:49.629Z,99220.11
2019-03-24T04:07:18.427Z,99222.27
2019-03-24T04:09:47.302Z,99212.88
2019-03-24T04:12:16.466Z,99204.42
2019-03-24T04:14:45.302Z,99205.67
2019-03-24T04:17:14.565Z,99201.45
2019-03-24T04:19:43.770Z,99204.67
2019-03-24T04:22:12.624Z,99200.13
2019-03-24T04:24:41.410Z,99202.24
2019-03-24T04:27:10.341Z,99207.80
2019-03-24T04:29:39.497Z,99205.05
2019-03-24T04:32:08.364Z,99202.02
2019-03-24T04:34:37.500Z,99209.84
2019-03-24T04:37:06.312Z,99201.05
2019-03-24T04:39:35.591Z,99203.61
2019-03-24T04:42:04.416Z,99208.13
2019-03-24T04:44:34.093Z,99199.95
2019-03-24T04:47:02.903Z,99191.52
2019-03-24T04:49:33.397Z,99201.86
2019-03-24T04:52:02.546Z,99199.77
2019-03-24T04:54:31.776Z,99192.35
2019-03-24T04:57:00.928Z,99192.70
2019-03-24T04:59:30.730Z,99192.84
2019-03-24T05:01:59.531Z,99194.16
2019-03-24T05:04:28.423Z,99200.14
2019-03-24T05:06:57.428Z,99205.88
2019-03-24T05:09:26.801Z,99204.47
2019-03-24T05:11:55.620Z,99208.52
2019-03-24T05:14:24.425Z,99213.44
2019-03-24T05:16:53.628Z,99209.25
2019-03-24T05:19:22.521Z,99208.78
2019-03-24T05:21:51.465Z,99203.06
2019-03-24T05:24:20.256Z,99207.59
2019-03-24T05:26:49.075Z,99203.28
2019-03-24T05:29:17.844Z,99206.13
2019-03-24T05:31:46.638Z,99206.82
2019-03-24T05:34:15.924Z,99205.68
2019-03-24T05:36:44.801Z,99202.06
2019-03-24T05:39:13.614Z,99202.44
2019-03-24T05:41:44.158Z,99207.30
2019-03-24T05:44:13.389Z,99198.34
2019-03-24T05:46:42.150Z,99198.67
2019-03-24T05:49:10.966Z,99203.67
2019-03-24T05:51:39.869Z,99204.17
2019-03-24T05:54:08.795Z,99200.29
2019-03-24T05:56:37.743Z,99211.34
2019-03-24T05:59:06.463Z,99209.01
2019-03-24T06:01:35.310Z,99211.66
2019-03-24T06:04:04.252Z,99212.10
2019-03-24T06:06:33.093Z,99217.49
2019-03-24T06:09:02.156Z,99216.11
2019-03-24T06:11:33.214Z,99215.33
2019-03-24T06:14:02.017Z,99212.50
2019-03-24T06:16:30.838Z,99212.80
2019-03-24T06:18:59.710Z,99214.75
2019-03-24T06:21:28.651Z,99212.68
2019-03-24T06:23:57.451Z,99207.36
2019-03-24T06:26:26.362Z,99208.43
2019-03-24T06:28:55.305Z,99203.39
2019-03-24T06:31:24.138Z,99205.75
2019-03-24T06:33:52.983Z,99203.48
2019-03-24T06:36:21.900Z,99204.59
2019-03-24T06:38:50.936Z,99205.77
2019-03-24T06:41:20.641Z,99208.34
2019-03-24T06:43:49.461Z,99207.31
2019-03-24T06:46:18.246Z,99212.47
2019-03-24T06:48:47.128Z,99205.89
2019-03-24T06:51:16.131Z,99201.94
2019-03-24T06:53:44.910Z,99204.97
2019-03-24T06:56:13.746Z,99204.38
2019-03-24T06:58:42.565Z,99204.37
2019-03-24T07:01:11.931Z,99208.83
2019-03-24T07:03:41.032Z,99206.95
2019-03-24T07:06:09.812Z,99204.80
2019-03-24T07:08:39.050Z,99200.92
2019-03-24T07:11:13.353Z,99203.38
2019-03-24T07:13:39.258Z,99195.38
2019-03-24T07:16:08.196Z,99202.07
2019-03-24T07:18:36.972Z,99198.83
2019-03-24T07:21:05.886Z,99202.34
2019-03-24T07:23:34.810Z,99197.22
2019-03-24T07:26:03.770Z,99186.86
2019-03-24T07:28:32.644Z,99197.27
2019-03-24T07:31:01.985Z,99190.80
2019-03-24T07:33:30.866Z,99185.53
2019-03-24T07:35:59.695Z,99185.92
2019-03-24T07:38:28.865Z,99189.20
2019-03-24T07:40:58.441Z,99188.42
2019-03-24T07:43:27.670Z,99187.80
2019-03-24T07:45:56.488Z,99181.03
2019-03-24T07:48:25.274Z,99175.91
2019-03-24T07:50:54.094Z,99180.08
2019-03-24T07:53:22.857Z,99180.17
2019-03-24T07:55:51.671Z,99179.20
2019-03-24T07:58:20.768Z,99180.22
2019-03-24T08:00:49.698Z,99181.75
2019-03-24T08:03:19.107Z,99178.81
2019-03-24T08:05:48.016Z,99179.80
2019-03-24T08:08:17.497Z,99183.69
2019-03-24T08:10:46.619Z,99176.78
2019-03-24T08:13:15.552Z,99182.31
2019-03-24T08:15:44.328Z,99185.02
2019-03-24T08:18:13.186Z,99180.28
2019-03-24T08:20:43.273Z,99176.46
2019-03-24T08:23:12.376Z,99178.16
2019-03-24T08:25:41.200Z,99175.48
2019-03-24T08:28:10.418Z,99175.43
2019-03-24T08:30:39.458Z,99174.31
2019-03-24T08:33:08.302Z,99173.92
2019-03-24T08:35:37.233Z,99170.33
2019-03-24T08:38:06.151Z,99166.53
2019-03-24T08:40:34.895Z,99163.18
2019-03-24T08:43:04.051Z,99162.36
2019-03-24T08:45:32.831Z,99159.59
2019-03-24T08:48:01.665Z,99163.55
2019-03-24T08:50:30.423Z,99159.06
2019-03-24T08:53:02.063Z,99159.44
2019-03-24T08:55:32.081Z,99152.08
2019-03-24T08:58:00.894Z,99146.73
2019-03-24T09:00:30.772Z,99146.23
2019-03-24T09:03:00.080Z,99141.00
2019-03-24T09:05:30.750Z,99134.72
2019-03-24T09:07:59.598Z,99129.14
2019-03-24T09:10:29.861Z,99126.67
2019-03-24T09:12:58.841Z,99126.13
2019-03-24T09:15:27.714Z,99133.19
2019-03-24T09:17:56.667Z,99129.09
2019-03-24T09:20:25.455Z,99130.66
2019-03-24T09:22:54.261Z,99113.28
2019-03-24T09:25:23.192Z,99114.12
2019-03-24T09:27:52.166Z,99111.52
2019-03-24T09:30:33.234Z,99108.72
2019-03-24T09:33:02.417Z,99109.34
2019-03-24T09:35:31.274Z,99100.42
2019-03-24T09:38:00.494Z,99102.07
2019-03-24T09:40:30.986Z,99096.14
2019-03-24T09:43:00.246Z,99092.87
2019-03-24T09:45:30.602Z,99089.38
2019-03-24T09:47:59.964Z,99087.50
2019-03-24T09:50:28.834Z,99095.66
2019-03-24T09:52:57.749Z,99085.38
2019-03-24T09:55:26.541Z,99083.78
2019-03-24T09:57:55.927Z,99081.39
2019-03-24T10:00:24.665Z,99081.94
2019-03-24T10:02:54.108Z,99078.33
2019-03-24T10:05:23.628Z,99072.70
2019-03-24T10:07:52.720Z,99063.33
2019-03-24T10:10:21.598Z,99067.83
2019-03-24T10:12:51.734Z,99065.95
2019-03-24T10:15:22.368Z,99065.59
2019-03-24T10:17:51.199Z,99056.86
2019-03-24T10:20:20.055Z,99048.36
2019-03-24T10:22:48.929Z,99045.31
2019-03-24T10:25:17.944Z,99055.11
2019-03-24T10:27:47.811Z,99042.63
2019-03-24T10:30:16.666Z,99041.78
2019-03-24T10:32:45.446Z,99051.31
2019-03-24T10:35:14.616Z,99048.12
2019-03-24T10:37:43.748Z,99043.27
2019-03-24T10:40:12.966Z,99042.12
2019-03-24T10:42:41.762Z,99036.03
2019-03-24T10:45:10.772Z,99039.78
2019-03-24T10:47:39.755Z,99040.78
2019-03-24T10:50:09.447Z,99038.55
2019-03-24T10:52:38.408Z,99038.21
2019-03-24T10:55:08.768Z,99037.27
2019-03-24T10:57:37.943Z,99040.55
2019-03-24T11:00:08.780Z,99044.91
2019-03-24T11:02:37.938Z,99044.12
2019-03-24T11:05:07.032Z,99046.80
2019-03-24T11:07:35.892Z,99046.20
2019-03-24T11:10:06.015Z,99054.11
2019-03-24T11:12:34.852Z,99048.48
2019-03-24T11:15:04.623Z,99049.46
2019-03-24T11:17:33.855Z,99047.45
2019-03-24T11:20:03.047Z,99045.22
2019-03-24T11:22:32.175Z,99044.34
2019-03-24T11:25:02.197Z,99048.44
2019-03-24T11:27:31.578Z,99044.38
2019-03-24T11:30:00.537Z,99043.36
2019-03-24T11:32:29.394Z,99044.75
2019-03-24T11:34:58.210Z,99042.30
2019-03-24T11:37:27.317Z,99041.40
2019-03-24T11:39:56.161Z,99038.09
2019-03-24T11:42:25.331Z,99033.31
2019-03-24T11:44:54.218Z,99035.63
2019-03-24T11:47:26.781Z,99040.59
2019-03-24T11:49:54.613Z,99031.16
2019-03-24T11:52:23.441Z,99031.09
2019-03-24T11:54:52.581Z,99025.77
2019-03-24T11:57:21.477Z,99023.67
2019-03-24T11:59:50.365Z,99027.27
2019-03-24T12:02:19.310Z,99022.29
2019-03-24T12:04:48.133Z,99011.05
2019-03-24T12:07:16.923Z,99006.95
2019-03-24T12:09:46.277Z,98994.83
2019-03-24T12:12:15.525Z,98993.25
2019-03-24T12:14:44.382Z,98990.10
2019-03-24T12:17:13.247Z,98980.64
2019-03-24T12:19:42.410Z,98982.55
2019-03-24T12:22:20.219Z,98970.81
2019-03-24T12:24:50.350Z,98963.77
2019-03-24T12:27:19.199Z,98971.04
2019-03-24T12:29:48.085Z,98966.72
2019-03-24T12:32:17.595Z,98950.69
2019-03-24T12:34:46.481Z,98949.15
2019-03-24T12:37:15.293Z,98958.72
2019-03-24T12:39:44.410Z,98957.46
2019-03-24T12:42:13.301Z,98947.97
2019-03-24T12:44:42.233Z,98952.77
2019-03-24T12:47:11.059Z,98947.22
2019-03-24T12:49:39.870Z,98940.27
2019-03-24T12:52:12.877Z,98936.98
2019-03-24T12:54:41.168Z,98930.08
2019-03-24T12:57:10.232Z,98928.73
2019-03-24T12:59:39.051Z,98924.47
2019-03-24T13:02:07.828Z,98929.14
2019-03-24T13:04:37.823Z,98927.83
2019-03-24T13:07:06.607Z,98923.22
2019-03-24T13:09:35.517Z,98921.84
2019-03-24T13:12:04.304Z,98923.26
2019-03-24T13:14:33.122Z,98926.83
2019-03-24T13:17:01.998Z,98919.25
2019-03-24T13:19:30.814Z,98920.56
2019-03-24T13:22:00.850Z,98909.80
2019-03-24T13:24:29.739Z,98914.55
2019-03-24T13:26:58.603Z,98909.79
2019-03-24T13:29:27.549Z,98913.55
2019-03-24T13:31:56.362Z,98916.94
2019-03-24T13:34:25.474Z,98910.79
2019-03-24T13:36:54.639Z,98905.59
2019-03-24T13:39:23.551Z,98912.03
2019-03-24T13:41:52.379Z,98909.25
2019-03-24T13:44:21.246Z,98913.16
2019-03-24T13:46:50.066Z,98900.56
2019-03-24T13:49:19.547Z,98905.13
2019-03-24T13:51:48.319Z,98899.70
2019-03-24T13:54:17.440Z,98902.75
2019-03-24T13:56:46.520Z,98901.20
2019-03-24T13:59:15.302Z,98892.59
2019-03-24T14:01:44.321Z,98895.45
2019-03-24T14:04:13.110Z,98892.91
2019-03-24T14:06:41.950Z,98905.66
2019-03-24T14:09:11.299Z,98902.84
2019-03-24T14:11:40.211Z,98905.61
2019-03-24T14:14:09.035Z,98906.08
2019-03-24T14:16:37.883Z,98893.50
2019-03-24T14:19:06.785Z,98892.87
2019-03-24T14:21:35.651Z,98894.25
2019-03-24T14:24:04.425Z,98898.86
2019-03-24T14:26:33.475Z,98908.67
2019-03-24T14:29:02.261Z,98902.42
2019-03-24T14:31:32.831Z,98899.47
2019-03-24T14:34:01.948Z,98911.63
2019-03-24T14:36:31.085Z,98901.06
2019-03-24T14:38:59.904Z,98913.60
2019-03-24T14:41:28.765Z,98915.73
2019-03-24T14:43:57.569Z,98933.28
2019-03-24T14:46:26.736Z,98922.62
2019-03-24T14:48:55.627Z,98915.25
2019-03-24T14:51:26.360Z,98923.38
2019-03-24T14:53:55.173Z,98923.30
2019-03-24T14:56:24.343Z,98918.31
2019-03-24T14:58:53.700Z,98931.45
2019-03-24T15:01:22.854Z,98923.58
2019-03-24T15:03:51.713Z,98919.97
2019-03-24T15:06:20.754Z,98922.16
2019-03-24T15:08:49.666Z,98914.73
2019-03-24T15:11:19.694Z,98919.67
2019-03-24T15:13:48.475Z,98931.27
2019-03-24T15:16:17.325Z,98924.56
2019-03-24T15:18:47.461Z,98931.80
2019-03-24T15:21:16.322Z,98919.95
2019-03-24T15:23:45.096Z,98921.36
2019-03-24T15:26:13.941Z,98921.70
2019-03-24T15:28:42.749Z,98923.97
2019-03-24T15:31:11.725Z,98936.02
2019-03-24T15:33:40.971Z,98932.05
2019-03-24T15:36:13.214Z,98923.09
2019-03-24T15:38:42.760Z,98921.49
2019-03-24T15:41:11.820Z,98918.66
2019-03-24T15:43:41.207Z,98915.92
2019-03-24T15:46:10.285Z,98924.70
2019-03-24T15:48:39.131Z,98919.23
2019-03-24T15:51:16.325Z,98937.42
2019-03-24T15:53:38.793Z,98927.73
2019-03-24T15:56:07.661Z,98931.52
2019-03-24T15:58:36.492Z,98926.39
2019-03-24T16:01:05.484Z,98930.70
2019-03-24T16:03:34.507Z,98931.12
2019-03-24T16:06:03.639Z,98927.66
2019-03-24T16:08:32.966Z,98927.34
2019-03-24T16:11:02.371Z,98927.47
2019-03-24T16:13:31.390Z,98930.33
2019-03-24T16:16:00.504Z,98931.50
2019-03-24T16:18:30.928Z,98927.63
2019-03-24T16:20:59.919Z,98925.66
2019-03-24T16:23:28.758Z,98933.05
2019-03-24T16:25:57.656Z,98930.99
2019-03-24T16:28:26.597Z,98936.39
2019-03-24T16:30:56.013Z,98938.55
2019-03-24T16:33:25.916Z,98932.75
2019-03-24T16:35:54.859Z,98936.08
2019-03-24T16:38:23.750Z,98942.44
2019-03-24T16:40:53.119Z,98936.44
2019-03-24T16:43:22.321Z,98947.31
2019-03-24T16:45:51.519Z,98953.76
2019-03-24T16:48:20.273Z,98951.33
2019-03-24T16:50:49.085Z,98949.11
2019-03-24T16:53:17.998Z,98946.60
2019-03-24T16:55:46.797Z,98945.50
2019-03-24T16:58:15.976Z,98951.34
2019-03-24T17:00:44.787Z,98949.67
2019-03-24T17:03:15.499Z,98939.21
2019-03-24T17:05:44.339Z,98947.64
2019-03-24T17:08:13.141Z,98949.55
2019-03-24T17:10:44.857Z,98957.80
2019-03-24T17:13:13.949Z,98956.61
2019-03-24T17:15:44.068Z,98957.90
2019-03-24T17:18:13.211Z,98959.47
2019-03-24T17:20:42.237Z,98962.60
2019-03-24T17:23:12.332Z,98965.90
2019-03-24T17:25:41.264Z,98957.39
2019-03-24T17:28:10.130Z,98957.92
2019-03-24T17:30:39.939Z,98965.66
2019-03-24T17:33:08.789Z,98971.36
2019-03-24T17:35:41.739Z,98965.98
2019-03-24T17:38:13.642Z,98975.11
2019-03-24T17:40:44.543Z,98969.70
2019-03-24T17:43:13.514Z,98978.09
2019-03-24T17:45:42.589Z,98978.64
2019-03-24T17:48:11.982Z,98977.63
2019-03-24T17:50:40.811Z,98979.50
2019-03-24T17:53:10.204Z,98981.43
2019-03-24T17:55:39.210Z,98982.06
2019-03-24T17:58:07.999Z,98985.35
2019-03-24T18:00:43.222Z,98989.19
2019-03-24T18:03:12.524Z,98983.44
2019-03-24T18:05:41.779Z,98990.31
2019-03-24T18:08:10.592Z,98994.60
2019-03-24T18:10:39.739Z,98999.27
2019-03-24T18:13:08.684Z,99000.27
2019-03-24T18:15:37.652Z,98999.39
2019-03-24T18:18:06.873Z,99011.67
2019-03-24T18:20:36.441Z,99008.80
2019-03-24T18:23:05.681Z,99004.67
2019-03-24T18:25:39.185Z,98997.44
2019-03-24T18:28:08.465Z,98999.81
2019-03-24T18:30:37.766Z,98998.56
2019-03-24T18:33:07.058Z,98999.47
2019-03-24T18:35:36.266Z,99005.38
2019-03-24T18:38:05.096Z,99015.27
2019-03-24T18:40:33.981Z,99015.16
2019-03-24T18:43:02.768Z,99020.25
2019-03-24T18:45:33.061Z,99020.20
2019-03-24T18:48:01.879Z,99016.55
2019-03-24T18:50:31.222Z,99014.75
2019-03-24T18:53:00.512Z,99020.79
2019-03-24T18:55:29.658Z,99019.95
2019-03-24T18:57:58.541Z,99018.46
2019-03-24T19:00:27.982Z,99017.58
2019-03-24T19:02:56.787Z,99021.33
2019-03-24T19:05:26.045Z,99024.91
2019-03-24T19:07:54.866Z,99024.79
2019-03-24T19:10:24.157Z,99020.45
2019-03-24T19:12:53.410Z,99019.41
2019-03-24T19:15:22.584Z,99014.16
2019-03-24T19:17:51.594Z,99013.62
2019-03-24T19:20:20.474Z,99023.86
2019-03-24T19:22:49.287Z,99018.03
2019-03-24T19:25:18.341Z,99011.88
2019-03-24T19:27:47.210Z,99016.45
2019-03-24T19:30:16.341Z,99006.02
2019-03-24T19:32:45.574Z,99006.05
2019-03-24T19:35:14.490Z,99015.95
2019-03-24T19:37:44.892Z,99017.22
2019-03-24T19:40:26.095Z,99012.62
2019-03-24T19:42:55.215Z,99012.09
2019-03-24T19:45:24.239Z,99022.02
2019-03-24T19:47:53.203Z,99022.02
2019-03-24T19:50:22.142Z,99016.30
2019-03-24T19:52:51.140Z,99009.33
2019-03-24T19:55:20.172Z,99018.47
2019-03-24T19:57:49.135Z,99014.02
2019-03-24T20:00:18.024Z,99014.31
2019-03-24T20:02:47.047Z,99010.08
2019-03-24T20:05:15.971Z,99009.31
2019-03-24T20:07:48.254Z,99002.30
2019-03-24T20:10:17.320Z,99002.30
2019-03-24T20:12:46.950Z,99005.62
2019-03-24T20:15:16.924Z,99001.13
2019-03-24T20:17:45.683Z,98997.53
2019-03-24T20:20:14.629Z,98998.16
2019-03-24T20:22:43.456Z,99003.58
2019-03-24T20:25:12.358Z,99008.28
2019-03-24T20:27:41.839Z,99007.64
2019-03-24T20:30:11.381Z,99000.13
2019-03-24T20:32:40.450Z,99004.43
2019-03-24T20:35:11.309Z,98996.36
2019-03-24T20:37:40.472Z,98996.24
2019-03-24T20:40:09.871Z,98992.97
2019-03-24T20:42:38.771Z,98989.34
2019-03-24T20:45:07.914Z,98989.28
2019-03-24T20:47:36.883Z,98990.40
2019-03-24T20:50:06.701Z,98990.56
2019-03-24T20:52:35.698Z,98988.25
2019-03-24T20:55:05.261Z,98981.53
2019-03-24T20:57:34.374Z,98981.94
2019-03-24T21:00:05.615Z,98975.56
2019-03-24T21:02:36.317Z,98974.58
2019-03-24T21:05:05.960Z,98975.22
2019-03-24T21:07:35.736Z,98978.10
2019-03-24T21:10:05.626Z,98976.19
2019-03-24T21:12:34.546Z,98978.39
2019-03-24T21:15:03.901Z,98977.92
2019-03-24T21:17:34.106Z,98977.73
2019-03-24T21:20:03.171Z,98984.72
2019-03-24T21:22:31.992Z,98977.89
2019-03-24T21:25:00.827Z,98979.78
2019-03-24T21:27:30.201Z,98977.47
2019-03-24T21:30:01.705Z,98981.71
2019-03-24T21:32:31.935Z,98979.02
2019-03-24T21:35:00.748Z,98984.55
2019-03-24T21:37:29.680Z,98987.22
2019-03-24T21:39:58.697Z,98987.22
2019-03-24T21:42:27.463Z,98987.41
2019-03-24T21:44:56.417Z,98986.22
2019-03-24T21:47:24.873Z,98989.63
2019-03-24T21:49:53.786Z,98986.80
2019-03-24T21:52:22.981Z,98982.91
2019-03-24T21:54:51.880Z,98989.00
2019-03-24T21:57:34.289Z,98987.07
2019-03-24T22:00:07.571Z,98987.06
2019-03-24T22:02:37.057Z,98977.59
2019-03-24T22:05:06.004Z,98978.05
2019-03-24T22:07:34.998Z,98980.55
2019-03-24T22:10:04.723Z,98978.52
2019-03-24T22:12:33.986Z,98985.89
2019-03-24T22:15:07.024Z,98986.87
2019-03-24T22:17:35.991Z,98977.79
2019-03-24T22:20:05.258Z,98981.65
2019-03-24T22:22:34.548Z,98982.29
2019-03-24T22:25:03.549Z,98977.88
2019-03-24T22:27:32.657Z,98970.44
2019-03-24T22:30:01.602Z,98969.70
2019-03-24T22:32:31.646Z,98974.20
2019-03-24T22:35:00.450Z,98963.98
2019-03-24T22:37:29.640Z,98960.50
2019-03-24T22:39:58.450Z,98963.08
2019-03-24T22:42:27.831Z,98958.81
2019-03-24T22:44:56.626Z,98968.75
2019-03-24T22:47:25.436Z,98963.89
2019-03-24T22:49:55.347Z,98964.61
2019-03-24T22:52:24.326Z,98966.16
2019-03-24T22:54:53.508Z,98976.03
2019-03-24T22:57:22.415Z,98968.39
2019-03-24T22:59:51.363Z,98960.91
2019-03-24T23:02:20.185Z,98963.05
2019-03-24T23:04:48.985Z,98960.64
2019-03-24T23:07:17.847Z,98959.98
2019-03-24T23:09:47.450Z,98956.75
2019-03-24T23:12:16.274Z,98956.55
2019-03-24T23:14:45.877Z,98947.08
2019-03-24T23:17:14.958Z,98947.48
2019-03-24T23:19:43.763Z,98947.41
2019-03-24T23:22:12.636Z,98950.05
2019-03-24T23:24:43.482Z,98946.38
2019-03-24T23:27:12.314Z,98941.39
2019-03-24T23:29:41.112Z,98940.58
2019-03-24T23:32:10.280Z,98949.09
2019-03-24T23:34:39.603Z,98944.61
2019-03-24T23:37:08.857Z,98939.19
2019-03-24T23:39:37.975Z,98946.07
2019-03-24T23:42:06.940Z,98949.34
2019-03-24T23:44:36.876Z,98946.91
2019-03-24T23:47:05.801Z,98944.86
2019-03-24T23:49:34.722Z,98944.13
2019-03-24T23:52:03.900Z,98934.86
2019-03-24T23:54:32.781Z,98928.38
2019-03-24T23:57:01.691Z,98932.33
2019-03-24T23:59:30.541Z,98934.17
